createdAt,value
2023-03-23T00:00:16.514Z,95.91
2023-03-23T00:01:18.233Z,95.98
2023-03-23T00:02:19.972Z,96.54
2023-03-23T00:03:21.699Z,96.94
2023-03-23T00:04:23.472Z,97.33
2023-03-23T00:05:25.174Z,97.23
2023-03-23T00:06:26.912Z,96.84
2023-03-23T00:07:28.636Z,96.8
2023-03-23T00:08:30.373Z,96.82
2023-03-23T00:09:32.100Z,97.52
2023-03-23T00:10:33.836Z,97.65
2023-03-23T00:11:35.598Z,97.64
2023-03-23T00:12:37.321Z,97.94
2023-03-23T00:13:39.062Z,97.63
2023-03-23T00:14:40.774Z,97.89
2023-03-23T00:15:42.644Z,98.07
2023-03-23T00:16:44.257Z,98.43
2023-03-23T00:17:45.984Z,98.45
2023-03-23T00:18:47.716Z,98.73
2023-03-23T00:19:49.447Z,98.92
2023-03-23T00:20:51.180Z,99.01
2023-03-23T00:21:52.936Z,99.57
2023-03-23T00:22:54.646Z,99.71
2023-03-23T00:23:56.385Z,99.89
2023-03-23T00:24:58.223Z,100
2023-03-23T00:25:59.877Z,100
2023-03-23T00:27:01.577Z,100
2023-03-23T00:28:03.337Z,99.9
2023-03-23T00:29:05.071Z,99.88
2023-03-23T00:30:06.811Z,100
2023-03-23T00:31:08.528Z,100
2023-03-23T00:32:10.261Z,100
2023-03-23T00:33:12.005Z,100
2023-03-23T00:34:13.825Z,100
2023-03-23T00:35:15.472Z,100
2023-03-23T00:36:17.197Z,100
2023-03-23T00:37:18.970Z,100
2023-03-23T00:38:20.658Z,100
2023-03-23T00:39:22.409Z,100
2023-03-23T00:40:24.140Z,100
2023-03-23T00:41:25.884Z,100
2023-03-23T00:42:27.644Z,100
2023-03-23T00:43:29.324Z,100
2023-03-23T00:44:31.089Z,100
2023-03-23T00:45:32.845Z,100
2023-03-23T00:46:34.542Z,100
2023-03-23T00:47:36.276Z,100
2023-03-23T00:48:38.064Z,100
2023-03-23T00:49:39.807Z,100
2023-03-23T00:50:41.503Z,100
2023-03-23T00:51:43.218Z,100
2023-03-23T00:52:44.955Z,100
2023-03-23T00:53:46.712Z,100
2023-03-23T00:54:48.444Z,100
2023-03-23T00:55:50.174Z,100
2023-03-23T00:56:51.924Z,100
2023-03-23T00:57:53.622Z,100
2023-03-23T00:58:55.361Z,100
2023-03-23T00:59:57.110Z,100
2023-03-23T01:00:58.837Z,100
2023-03-23T01:02:00.558Z,100
2023-03-23T01:03:02.322Z,100
2023-03-23T01:04:03.994Z,100
2023-03-23T01:05:05.740Z,100
2023-03-23T01:06:07.467Z,100
2023-03-23T01:07:09.186Z,100
2023-03-23T01:08:10.909Z,100
2023-03-23T01:09:12.654Z,100
2023-03-23T01:10:14.410Z,100
2023-03-23T01:11:16.131Z,100
2023-03-23T01:12:17.870Z,100
2023-03-23T01:13:19.588Z,100
2023-03-23T01:14:21.322Z,100
2023-03-23T01:15:23.085Z,100
2023-03-23T01:16:24.852Z,100
2023-03-23T01:17:26.535Z,100
2023-03-23T01:18:34.149Z,100
2023-03-23T01:19:29.998Z,100
2023-03-23T01:20:31.740Z,100
2023-03-23T01:21:33.515Z,100
2023-03-23T01:22:35.243Z,100
2023-03-23T01:23:36.950Z,100
2023-03-23T01:24:38.673Z,100
2023-03-23T01:25:40.581Z,100
2023-03-23T01:26:42.154Z,100
2023-03-23T01:27:43.892Z,99.1
2023-03-23T01:28:45.641Z,97.37
2023-03-23T01:29:47.334Z,98.12
2023-03-23T01:30:49.087Z,98.56
2023-03-23T01:31:50.819Z,98.58
2023-03-23T01:32:52.719Z,99.09
2023-03-23T01:33:54.286Z,97.43
2023-03-23T01:34:56.019Z,97.42
2023-03-23T01:35:57.816Z,97.83
2023-03-23T01:36:59.485Z,97.71
2023-03-23T01:38:01.245Z,97.01
2023-03-23T01:39:02.936Z,97.6
2023-03-23T01:40:04.693Z,97.29
2023-03-23T01:41:06.415Z,96.95
2023-03-23T01:42:08.154Z,97.62
2023-03-23T01:43:09.897Z,97.39
2023-03-23T01:44:11.620Z,97.57
2023-03-23T01:45:13.346Z,98.46
2023-03-23T01:46:15.087Z,98.58
2023-03-23T01:47:16.804Z,98.14
2023-03-23T01:48:18.558Z,98.81
2023-03-23T01:49:20.300Z,98.8
2023-03-23T01:50:22.025Z,99.7
2023-03-23T01:51:30.645Z,98.58
2023-03-23T01:52:25.610Z,98.48
2023-03-23T01:53:27.223Z,98.56
2023-03-23T01:54:28.981Z,98.92
2023-03-23T01:55:30.674Z,99.76
2023-03-23T01:56:32.430Z,99.45
2023-03-23T01:57:34.167Z,99.76
2023-03-23T01:58:35.915Z,99.71
2023-03-23T01:59:37.701Z,99.51
2023-03-23T02:00:39.371Z,100
2023-03-23T02:01:41.107Z,100
2023-03-23T02:02:42.840Z,99.01
2023-03-23T02:03:44.619Z,100
2023-03-23T02:04:46.302Z,100
2023-03-23T02:05:48.035Z,100
2023-03-23T02:06:49.764Z,100
2023-03-23T02:07:51.496Z,100
2023-03-23T02:08:53.244Z,100
2023-03-23T02:09:54.975Z,100
2023-03-23T02:10:56.694Z,100
2023-03-23T02:11:58.434Z,100
2023-03-23T02:13:00.183Z,100
2023-03-23T02:14:01.891Z,100
2023-03-23T02:15:03.651Z,100
2023-03-23T02:16:05.364Z,100
2023-03-23T02:17:07.129Z,100
2023-03-23T02:18:08.829Z,100
2023-03-23T02:19:10.565Z,100
2023-03-23T02:20:12.306Z,100
2023-03-23T02:21:14.049Z,100
2023-03-23T02:22:15.775Z,100
2023-03-23T02:23:17.503Z,100
2023-03-23T02:24:19.228Z,100
2023-03-23T02:25:20.970Z,100
2023-03-23T02:26:22.716Z,100
2023-03-23T02:27:24.449Z,100
2023-03-23T02:28:26.209Z,100
2023-03-23T02:29:27.920Z,100
2023-03-23T02:30:29.647Z,100
2023-03-23T02:31:31.389Z,100
2023-03-23T02:32:33.133Z,100
2023-03-23T02:33:34.838Z,100
2023-03-23T02:34:36.574Z,100
2023-03-23T02:35:38.398Z,100
2023-03-23T02:36:40.037Z,100
2023-03-23T02:37:41.782Z,100
2023-03-23T02:38:43.561Z,100
2023-03-23T02:39:45.278Z,100
2023-03-23T02:40:46.980Z,100
2023-03-23T02:41:48.751Z,100
2023-03-23T02:42:50.462Z,100
2023-03-23T02:43:52.177Z,100
2023-03-23T02:44:54.040Z,100
2023-03-23T02:45:55.653Z,100
2023-03-23T02:46:57.392Z,100
2023-03-23T02:47:59.110Z,100
2023-03-23T02:49:00.892Z,100
2023-03-23T02:50:02.600Z,100
2023-03-23T02:51:04.312Z,100
2023-03-23T02:52:06.162Z,100
2023-03-23T02:53:07.798Z,100
2023-03-23T02:54:09.524Z,100
2023-03-23T02:55:11.244Z,100
2023-03-23T02:56:13.009Z,100
2023-03-23T02:57:14.728Z,100
2023-03-23T02:58:16.437Z,100
2023-03-23T02:59:18.337Z,100
2023-03-23T03:00:20.001Z,100
2023-03-23T03:01:21.676Z,100
2023-03-23T03:02:23.413Z,100
2023-03-23T03:03:25.121Z,100
2023-03-23T03:04:26.860Z,100
2023-03-23T03:05:28.637Z,100
2023-03-23T03:06:30.330Z,100
2023-03-23T03:07:32.084Z,100
2023-03-23T03:08:33.818Z,100
2023-03-23T03:09:35.554Z,100
2023-03-23T03:10:37.262Z,100
2023-03-23T03:11:38.983Z,100
2023-03-23T03:12:40.746Z,100
2023-03-23T03:13:42.455Z,100
2023-03-23T03:14:44.185Z,100
2023-03-23T03:15:45.883Z,100
2023-03-23T03:16:47.609Z,100
2023-03-23T03:17:49.364Z,100
2023-03-23T03:18:51.105Z,100
2023-03-23T03:19:52.820Z,100
2023-03-23T03:20:54.577Z,100
2023-03-23T03:21:56.290Z,100
2023-03-23T03:22:58.042Z,100
2023-03-23T03:23:59.775Z,100
2023-03-23T03:25:01.502Z,100
2023-03-23T03:26:03.245Z,100
2023-03-23T03:27:04.978Z,100
2023-03-23T03:28:06.712Z,100
2023-03-23T03:29:08.432Z,100
2023-03-23T03:30:10.174Z,100
2023-03-23T03:31:12.009Z,100
2023-03-23T03:32:13.624Z,100
2023-03-23T03:33:15.405Z,100
2023-03-23T03:34:17.105Z,100
2023-03-23T03:35:19.307Z,100
2023-03-23T03:36:20.584Z,100
2023-03-23T03:37:22.318Z,100
2023-03-23T03:38:24.055Z,100
2023-03-23T03:39:25.781Z,100
2023-03-23T03:40:27.522Z,100
2023-03-23T03:41:29.255Z,100
2023-03-23T03:42:31.005Z,100
2023-03-23T03:43:32.715Z,100
2023-03-23T03:44:34.475Z,100
2023-03-23T03:45:36.181Z,100
2023-03-23T03:46:37.914Z,100
2023-03-23T03:47:39.653Z,100
2023-03-23T03:48:41.410Z,100
2023-03-23T03:49:43.131Z,100
2023-03-23T03:50:44.922Z,100
2023-03-23T03:51:46.612Z,100
2023-03-23T03:52:48.352Z,100
2023-03-23T03:53:50.069Z,100
2023-03-23T03:54:51.790Z,100
2023-03-23T03:55:53.528Z,100
2023-03-23T03:56:55.251Z,100
2023-03-23T03:57:56.992Z,100
2023-03-23T03:58:58.707Z,100
2023-03-23T04:00:00.450Z,100
2023-03-23T04:01:02.185Z,100
2023-03-23T04:02:03.924Z,100
2023-03-23T04:03:05.664Z,100
2023-03-23T04:04:07.388Z,100
2023-03-23T04:05:09.115Z,100
2023-03-23T04:06:10.860Z,100
2023-03-23T04:07:12.590Z,100
2023-03-23T04:08:14.319Z,100
2023-03-23T04:09:16.069Z,100
2023-03-23T04:10:32.759Z,100
2023-03-23T04:11:32.610Z,100
2023-03-23T04:12:21.268Z,100
2023-03-23T04:13:22.981Z,100
2023-03-23T04:14:24.730Z,100
2023-03-23T04:15:26.466Z,100
2023-03-23T04:16:28.211Z,100
2023-03-23T04:17:29.932Z,100
2023-03-23T04:18:31.688Z,100
2023-03-23T04:19:33.411Z,100
2023-03-23T04:20:35.143Z,100
2023-03-23T04:21:36.864Z,100
2023-03-23T04:22:38.601Z,100
2023-03-23T04:23:40.340Z,100
2023-03-23T04:24:56.849Z,100
2023-03-23T04:25:43.797Z,100
2023-03-23T04:26:45.545Z,100
2023-03-23T04:27:47.267Z,100
2023-03-23T04:28:49.006Z,100
2023-03-23T04:29:50.785Z,100
2023-03-23T04:30:52.495Z,100
2023-03-23T04:31:54.224Z,100
2023-03-23T04:32:55.935Z,100
2023-03-23T04:34:00.750Z,100
2023-03-23T04:34:59.432Z,100
2023-03-23T04:36:01.179Z,100
2023-03-23T04:37:02.905Z,100
2023-03-23T04:38:04.644Z,100
2023-03-23T04:39:06.365Z,100
2023-03-23T04:40:08.105Z,100
2023-03-23T04:41:09.832Z,100
2023-03-23T04:42:11.583Z,100
2023-03-23T04:43:13.295Z,100
2023-03-23T04:44:15.031Z,100
2023-03-23T04:45:16.777Z,100
2023-03-23T04:46:18.492Z,100
2023-03-23T04:47:20.221Z,100
2023-03-23T04:48:21.970Z,100
2023-03-23T04:49:23.690Z,100
2023-03-23T04:50:25.438Z,100
2023-03-23T04:51:27.173Z,100
2023-03-23T04:52:28.905Z,100
2023-03-23T04:53:30.643Z,100
2023-03-23T04:54:32.402Z,100
2023-03-23T04:55:34.115Z,100
2023-03-23T04:56:35.841Z,100
2023-03-23T04:57:37.573Z,100
2023-03-23T04:58:39.315Z,100
2023-03-23T04:59:41.096Z,100
2023-03-23T05:00:42.761Z,100
2023-03-23T05:01:44.498Z,100
2023-03-23T05:02:46.236Z,100
2023-03-23T05:03:47.972Z,100
2023-03-23T05:04:49.706Z,100
2023-03-23T05:05:51.493Z,100
2023-03-23T05:06:53.189Z,100
2023-03-23T05:07:57.790Z,100
2023-03-23T05:08:56.655Z,100
2023-03-23T05:09:58.591Z,100
2023-03-23T05:11:00.129Z,100
2023-03-23T05:12:01.830Z,100
2023-03-23T05:13:04.717Z,100
2023-03-23T05:14:05.301Z,100
2023-03-23T05:15:08.388Z,100
2023-03-23T05:16:08.745Z,100
2023-03-23T05:17:10.511Z,100
2023-03-23T05:18:12.206Z,100
2023-03-23T05:19:13.939Z,100
2023-03-23T05:20:15.689Z,100
2023-03-23T05:21:17.391Z,100
2023-03-23T05:22:19.134Z,100
2023-03-23T05:23:20.880Z,100
2023-03-23T05:24:22.657Z,100
2023-03-23T05:25:24.347Z,100
2023-03-23T05:26:26.087Z,100
2023-03-23T05:27:27.805Z,100
2023-03-23T05:28:29.533Z,100
2023-03-23T05:29:31.308Z,100
2023-03-23T05:30:33.004Z,100
2023-03-23T05:31:34.740Z,100
2023-03-23T05:32:36.478Z,100
2023-03-23T05:33:38.222Z,100
2023-03-23T05:34:40.026Z,100
2023-03-23T05:35:42.026Z,100
2023-03-23T05:36:43.425Z,100
2023-03-23T05:37:45.164Z,100
2023-03-23T05:38:46.888Z,100
2023-03-23T05:39:48.634Z,100
2023-03-23T05:40:50.377Z,100
2023-03-23T05:41:52.109Z,100
2023-03-23T05:42:53.822Z,100
2023-03-23T05:43:55.560Z,100
2023-03-23T05:44:57.288Z,100
2023-03-23T05:45:59.014Z,100
2023-03-23T05:47:00.758Z,100
2023-03-23T05:48:02.500Z,100
2023-03-23T05:49:04.244Z,100
2023-03-23T05:50:05.958Z,100
2023-03-23T05:51:07.720Z,100
2023-03-23T05:52:09.462Z,100
2023-03-23T05:53:12.626Z,100
2023-03-23T05:54:12.916Z,100
2023-03-23T05:55:14.648Z,100
2023-03-23T05:56:16.365Z,100
2023-03-23T05:57:18.091Z,100
2023-03-23T05:58:19.859Z,100
2023-03-23T05:59:21.636Z,100
2023-03-23T06:00:23.309Z,100
2023-03-23T06:01:25.041Z,100
2023-03-23T06:02:26.795Z,100
2023-03-23T06:03:28.499Z,100
2023-03-23T06:04:30.225Z,100
2023-03-23T06:05:32.030Z,100
2023-03-23T06:06:33.704Z,100
2023-03-23T06:07:35.477Z,100
2023-03-23T06:08:37.180Z,100
2023-03-23T06:09:38.961Z,100
2023-03-23T06:10:40.647Z,100
2023-03-23T06:11:42.508Z,100
2023-03-23T06:12:44.159Z,100
2023-03-23T06:13:45.864Z,100
2023-03-23T06:14:47.586Z,100
2023-03-23T06:15:49.326Z,100
2023-03-23T06:16:51.053Z,100
2023-03-23T06:17:52.803Z,100
2023-03-23T06:18:54.524Z,100
2023-03-23T06:19:56.272Z,100
2023-03-23T06:20:58.059Z,100
2023-03-23T06:21:59.723Z,100
2023-03-23T06:23:01.473Z,100
2023-03-23T06:24:03.208Z,100
2023-03-23T06:25:04.968Z,100
2023-03-23T06:26:06.690Z,100
2023-03-23T06:27:08.417Z,100
2023-03-23T06:28:10.197Z,100
2023-03-23T06:29:11.877Z,100
2023-03-23T06:30:13.601Z,100
2023-03-23T06:31:15.338Z,100
2023-03-23T06:32:17.082Z,100
2023-03-23T06:33:19.867Z,100
2023-03-23T06:34:20.531Z,100
2023-03-23T06:35:22.259Z,100
2023-03-23T06:36:24.093Z,100
2023-03-23T06:37:25.727Z,100
2023-03-23T06:38:27.466Z,100
2023-03-23T06:39:29.201Z,100
2023-03-23T06:40:30.934Z,100
2023-03-23T06:41:32.680Z,100
2023-03-23T06:42:34.460Z,100
2023-03-23T06:43:37.727Z,100
2023-03-23T06:44:37.875Z,100
2023-03-23T06:45:39.805Z,100
2023-03-23T06:46:41.336Z,100
2023-03-23T06:47:43.062Z,100
2023-03-23T06:48:44.818Z,100
2023-03-23T06:49:46.581Z,100
2023-03-23T06:50:48.260Z,100
2023-03-23T06:51:50.007Z,100
2023-03-23T06:52:51.773Z,100
2023-03-23T06:53:53.473Z,100
2023-03-23T06:54:55.217Z,100
2023-03-23T06:55:56.953Z,100
2023-03-23T06:56:58.692Z,100
2023-03-23T06:58:00.426Z,100
2023-03-23T06:59:02.152Z,100
2023-03-23T07:00:03.901Z,100
2023-03-23T07:01:05.620Z,100
2023-03-23T07:02:07.357Z,100
2023-03-23T07:03:09.082Z,100
2023-03-23T07:04:10.822Z,100
2023-03-23T07:05:12.654Z,100
2023-03-23T07:06:14.287Z,100
2023-03-23T07:07:16.011Z,100
2023-03-23T07:08:17.793Z,100
2023-03-23T07:09:19.537Z,100
2023-03-23T07:10:21.228Z,100
2023-03-23T07:11:22.963Z,100
2023-03-23T07:12:24.700Z,100
2023-03-23T07:13:26.426Z,100
2023-03-23T07:14:28.151Z,100
2023-03-23T07:15:29.892Z,100
2023-03-23T07:16:31.626Z,100
2023-03-23T07:17:33.352Z,100
2023-03-23T07:18:35.080Z,100
2023-03-23T07:19:36.819Z,100
2023-03-23T07:20:38.556Z,100
2023-03-23T07:21:40.293Z,100
2023-03-23T07:22:42.054Z,100
2023-03-23T07:23:43.733Z,100
2023-03-23T07:24:45.449Z,100
2023-03-23T07:25:47.236Z,100
2023-03-23T07:26:48.894Z,100
2023-03-23T07:27:50.644Z,100
2023-03-23T07:28:52.353Z,100
2023-03-23T07:29:54.082Z,100
2023-03-23T07:30:55.798Z,100
2023-03-23T07:31:57.532Z,100
2023-03-23T07:32:59.246Z,100
2023-03-23T07:34:01.056Z,100
2023-03-23T07:35:02.717Z,100
2023-03-23T07:36:04.436Z,100
2023-03-23T07:37:06.146Z,100
2023-03-23T07:38:07.885Z,100
2023-03-23T07:39:09.599Z,100
2023-03-23T07:40:11.340Z,100
2023-03-23T07:41:13.054Z,100
2023-03-23T07:42:14.786Z,100
2023-03-23T07:43:16.540Z,100
2023-03-23T07:44:18.246Z,100
2023-03-23T07:45:19.969Z,100
2023-03-23T07:46:21.698Z,100
2023-03-23T07:47:23.424Z,100
2023-03-23T07:48:25.162Z,100
2023-03-23T07:49:26.877Z,100
2023-03-23T07:50:28.622Z,100
2023-03-23T07:51:30.397Z,100
2023-03-23T07:52:32.115Z,100
2023-03-23T07:53:33.805Z,100
2023-03-23T07:54:35.560Z,100
2023-03-23T07:55:37.284Z,100
2023-03-23T07:56:39.028Z,100
2023-03-23T07:57:40.753Z,100
2023-03-23T07:58:42.483Z,100
2023-03-23T07:59:44.431Z,100
2023-03-23T08:00:46.069Z,100
2023-03-23T08:01:47.711Z,100
2023-03-23T08:02:49.446Z,100
2023-03-23T08:03:51.169Z,100
2023-03-23T08:04:52.900Z,100
2023-03-23T08:05:54.646Z,100
2023-03-23T08:06:56.362Z,100
2023-03-23T08:07:58.091Z,100
2023-03-23T08:08:59.847Z,100
2023-03-23T08:10:01.589Z,100
2023-03-23T08:11:03.303Z,100
2023-03-23T08:12:05.019Z,100
2023-03-23T08:13:06.761Z,100
2023-03-23T08:14:08.495Z,100
2023-03-23T08:15:10.232Z,100
2023-03-23T08:16:11.960Z,100
2023-03-23T08:17:13.677Z,100
2023-03-23T08:18:15.422Z,100
2023-03-23T08:19:17.176Z,100
2023-03-23T08:20:18.915Z,100
2023-03-23T08:21:20.637Z,100
2023-03-23T08:22:22.366Z,100
2023-03-23T08:23:24.092Z,100
2023-03-23T08:24:25.838Z,100
2023-03-23T08:25:27.561Z,100
2023-03-23T08:26:29.299Z,100
2023-03-23T08:27:32.500Z,100
2023-03-23T08:28:34.207Z,100
2023-03-23T08:29:36.147Z,100
2023-03-23T08:30:36.298Z,100
2023-03-23T08:31:38.041Z,100
2023-03-23T08:32:39.757Z,100
2023-03-23T08:33:41.506Z,100
2023-03-23T08:34:43.215Z,100
2023-03-23T08:35:45.031Z,100
2023-03-23T08:36:46.848Z,100
2023-03-23T08:37:48.404Z,100
2023-03-23T08:38:50.188Z,100
2023-03-23T08:39:51.926Z,100
2023-03-23T08:40:53.612Z,100
2023-03-23T08:41:55.408Z,100
2023-03-23T08:43:01.059Z,100
2023-03-23T08:43:58.853Z,100
2023-03-23T08:45:00.570Z,100
2023-03-23T08:46:02.318Z,100
2023-03-23T08:47:04.021Z,100
2023-03-23T08:48:05.816Z,100
2023-03-23T08:49:07.504Z,100
2023-03-23T08:50:09.224Z,100
2023-03-23T08:51:10.972Z,100
2023-03-23T08:52:12.708Z,100
2023-03-23T08:53:14.422Z,100
2023-03-23T08:54:16.170Z,100
2023-03-23T08:55:19.320Z,100
2023-03-23T08:56:19.649Z,100
2023-03-23T08:57:21.357Z,100
2023-03-23T08:58:23.117Z,100
2023-03-23T08:59:24.853Z,100
2023-03-23T09:00:28.735Z,100
2023-03-23T09:01:28.303Z,100
2023-03-23T09:02:30.026Z,100
2023-03-23T09:03:31.778Z,100
2023-03-23T09:04:33.523Z,100
2023-03-23T09:05:35.272Z,100
2023-03-23T09:06:37.001Z,100
2023-03-23T09:07:38.723Z,100
2023-03-23T09:08:40.469Z,100
2023-03-23T09:09:42.189Z,100
2023-03-23T09:10:43.937Z,100
2023-03-23T09:11:45.663Z,100
2023-03-23T09:12:47.401Z,100
2023-03-23T09:13:49.110Z,100
2023-03-23T09:14:50.876Z,100
2023-03-23T09:15:55.381Z,100
2023-03-23T09:16:54.370Z,100
2023-03-23T09:17:56.055Z,100
2023-03-23T09:18:57.809Z,100
2023-03-23T09:19:59.518Z,100
2023-03-23T09:21:01.257Z,100
2023-03-23T09:22:03.018Z,100
2023-03-23T09:23:04.738Z,100
2023-03-23T09:24:06.464Z,100
2023-03-23T09:25:09.213Z,100
2023-03-23T09:26:09.934Z,100
2023-03-23T09:27:11.678Z,100
2023-03-23T09:28:13.398Z,100
2023-03-23T09:29:15.137Z,100
2023-03-23T09:30:16.886Z,100
2023-03-23T09:31:19.971Z,100
2023-03-23T09:32:20.415Z,100
2023-03-23T09:33:22.077Z,100
2023-03-23T09:34:23.816Z,100
2023-03-23T09:35:25.532Z,100
2023-03-23T09:36:27.286Z,100
2023-03-23T09:37:29.002Z,100
2023-03-23T09:38:30.754Z,100
2023-03-23T09:39:32.487Z,100
2023-03-23T09:40:34.216Z,100
2023-03-23T09:41:35.956Z,100
2023-03-23T09:42:37.685Z,100
2023-03-23T09:43:39.422Z,100
2023-03-23T09:44:41.154Z,100
2023-03-23T09:45:43.196Z,100
2023-03-23T09:46:44.639Z,100
2023-03-23T09:47:46.390Z,100
2023-03-23T09:48:48.090Z,100
2023-03-23T09:49:49.847Z,100
2023-03-23T09:50:51.551Z,100
2023-03-23T09:51:53.285Z,100
2023-03-23T09:52:55.019Z,100
2023-03-23T09:53:56.766Z,100
2023-03-23T09:54:58.490Z,100
2023-03-23T09:56:00.229Z,100
2023-03-23T09:57:01.969Z,100
2023-03-23T09:58:03.505Z,100
2023-03-23T09:59:05.261Z,100
2023-03-23T10:00:07.009Z,100
2023-03-23T10:01:08.774Z,100
2023-03-23T10:02:10.453Z,100
2023-03-23T10:03:13.468Z,100
2023-03-23T10:04:13.984Z,100
2023-03-23T10:05:15.714Z,100
2023-03-23T10:06:17.425Z,100
2023-03-23T10:07:19.241Z,100
2023-03-23T10:08:20.918Z,100
2023-03-23T10:09:22.630Z,100
2023-03-23T10:10:24.480Z,100
2023-03-23T10:11:26.111Z,100
2023-03-23T10:12:27.826Z,100
2023-03-23T10:13:29.594Z,100
2023-03-23T10:14:31.298Z,100
2023-03-23T10:15:33.053Z,100
2023-03-23T10:16:34.775Z,100
2023-03-23T10:17:36.570Z,100
2023-03-23T10:18:38.246Z,100
2023-03-23T10:19:39.976Z,100
2023-03-23T10:20:41.699Z,100
2023-03-23T10:21:43.431Z,100
2023-03-23T10:22:45.179Z,100
2023-03-23T10:23:46.909Z,100
2023-03-23T10:24:48.653Z,100
2023-03-23T10:25:50.389Z,100
2023-03-23T10:26:52.113Z,100
2023-03-23T10:27:53.831Z,100
2023-03-23T10:28:55.571Z,100
2023-03-23T10:29:57.304Z,100
2023-03-23T10:30:59.064Z,100
2023-03-23T10:32:00.794Z,100
2023-03-23T10:33:02.530Z,100
2023-03-23T10:34:04.242Z,100
2023-03-23T10:35:06.006Z,100
2023-03-23T10:36:07.754Z,100
2023-03-23T10:37:09.440Z,100
2023-03-23T10:38:11.166Z,100
2023-03-23T10:39:12.895Z,100
2023-03-23T10:40:14.697Z,100
2023-03-23T10:41:16.394Z,100
2023-03-23T10:42:18.104Z,100
2023-03-23T10:43:19.860Z,100
2023-03-23T10:44:21.595Z,100
2023-03-23T10:45:23.345Z,100
2023-03-23T10:46:31.959Z,100
2023-03-23T10:47:26.799Z,100
2023-03-23T10:48:28.525Z,100
2023-03-23T10:49:30.274Z,100
2023-03-23T10:50:32.018Z,100
2023-03-23T10:51:33.729Z,100
2023-03-23T10:52:35.474Z,100
2023-03-23T10:53:37.190Z,100
2023-03-23T10:54:38.938Z,100
2023-03-23T10:55:40.895Z,100
2023-03-23T10:56:58.198Z,100
2023-03-23T10:57:44.134Z,100
2023-03-23T10:58:45.873Z,100
2023-03-23T10:59:47.646Z,100
2023-03-23T11:00:49.379Z,100
2023-03-23T11:01:51.068Z,100
2023-03-23T11:02:52.821Z,100
2023-03-23T11:03:54.555Z,100
2023-03-23T11:04:56.322Z,100
2023-03-23T11:05:58.051Z,100
2023-03-23T11:06:59.751Z,100
2023-03-23T11:08:01.492Z,100
2023-03-23T11:09:03.251Z,100
2023-03-23T11:10:04.964Z,100
2023-03-23T11:11:06.666Z,100
2023-03-23T11:12:08.651Z,100
2023-03-23T11:13:10.139Z,100
2023-03-23T11:14:10.755Z,100
2023-03-23T11:15:13.560Z,100
2023-03-23T11:16:15.306Z,100
2023-03-23T11:17:17.071Z,100
2023-03-23T11:18:18.767Z,100
2023-03-23T11:19:20.502Z,100
2023-03-23T11:20:22.241Z,100
2023-03-23T11:21:23.995Z,100
2023-03-23T11:22:25.693Z,100
2023-03-23T11:23:27.438Z,100
2023-03-23T11:24:29.178Z,100
2023-03-23T11:25:30.924Z,100
2023-03-23T11:26:32.653Z,100
2023-03-23T11:27:34.463Z,100
2023-03-23T11:28:36.104Z,100
2023-03-23T11:29:37.875Z,100
2023-03-23T11:30:40.553Z,100
2023-03-23T11:31:41.373Z,100
2023-03-23T11:32:43.053Z,100
2023-03-23T11:33:44.771Z,100
2023-03-23T11:34:46.530Z,100
2023-03-23T11:35:48.241Z,100
2023-03-23T11:36:49.996Z,100
2023-03-23T11:37:51.722Z,100
2023-03-23T11:38:53.457Z,100
2023-03-23T11:39:55.231Z,100
2023-03-23T11:40:56.933Z,100
2023-03-23T11:42:08.961Z,100
2023-03-23T11:43:00.393Z,100
2023-03-23T11:44:02.136Z,100
2023-03-23T11:45:03.875Z,100
2023-03-23T11:46:05.628Z,100
2023-03-23T11:47:07.329Z,100
2023-03-23T11:48:09.128Z,100
2023-03-23T11:49:23.265Z,100
2023-03-23T11:50:12.540Z,100
2023-03-23T11:51:14.263Z,100
2023-03-23T11:52:16.002Z,100
2023-03-23T11:53:17.734Z,100
2023-03-23T11:54:19.468Z,100
2023-03-23T11:55:21.231Z,100
2023-03-23T11:56:22.964Z,100
2023-03-23T11:57:24.670Z,100
2023-03-23T11:58:26.396Z,100
2023-03-23T11:59:28.133Z,100
2023-03-23T12:00:29.898Z,100
2023-03-23T12:01:31.604Z,100
2023-03-23T12:02:33.354Z,100
2023-03-23T12:03:35.097Z,100
2023-03-23T12:04:36.868Z,100
2023-03-23T12:05:38.547Z,100
2023-03-23T12:06:40.304Z,100
2023-03-23T12:07:42.046Z,100
2023-03-23T12:08:43.789Z,100
2023-03-23T12:09:45.476Z,100
2023-03-23T12:11:48.958Z,100
2023-03-23T12:12:50.682Z,100
2023-03-23T12:13:56.676Z,100
2023-03-23T12:14:54.152Z,100
2023-03-23T12:15:55.903Z,100
2023-03-23T12:16:57.622Z,100
2023-03-23T12:17:59.362Z,100
2023-03-23T12:19:01.091Z,100
2023-03-23T12:20:02.823Z,100
2023-03-23T12:21:04.577Z,100
2023-03-23T12:22:06.296Z,100
2023-03-23T12:23:08.106Z,100
2023-03-23T12:24:09.774Z,100
2023-03-23T12:25:11.502Z,100
2023-03-23T12:26:13.245Z,100
2023-03-23T12:27:14.966Z,100
2023-03-23T12:28:16.709Z,100
2023-03-23T12:29:18.432Z,100
2023-03-23T12:30:20.167Z,100
2023-03-23T12:31:21.900Z,100
2023-03-23T12:32:23.653Z,100
2023-03-23T12:33:25.354Z,100
2023-03-23T12:34:27.114Z,100
2023-03-23T12:35:28.825Z,100
2023-03-23T12:36:30.615Z,100
2023-03-23T12:37:32.309Z,100
2023-03-23T12:38:34.065Z,100
2023-03-23T12:39:35.802Z,100
2023-03-23T12:40:37.515Z,100
2023-03-23T12:41:39.259Z,100
2023-03-23T12:42:41.015Z,100
2023-03-23T12:43:42.743Z,100
2023-03-23T12:44:44.455Z,100
2023-03-23T12:45:46.205Z,100
2023-03-23T12:46:50.258Z,100
2023-03-23T12:47:49.711Z,100
2023-03-23T12:48:51.539Z,100
2023-03-23T12:49:53.180Z,100
2023-03-23T12:50:54.856Z,100
2023-03-23T12:51:58.098Z,100
2023-03-23T12:52:58.354Z,100
2023-03-23T12:54:00.080Z,100
2023-03-23T12:55:01.761Z,100
2023-03-23T12:56:03.598Z,100
2023-03-23T12:57:05.197Z,100
2023-03-23T12:58:06.957Z,100
2023-03-23T12:59:10.078Z,100
2023-03-23T13:00:11.541Z,100
2023-03-23T13:01:12.120Z,100
2023-03-23T13:02:13.845Z,100
2023-03-23T13:03:15.577Z,100
2023-03-23T13:04:17.288Z,100
2023-03-23T13:05:19.008Z,100
2023-03-23T13:06:20.730Z,100
2023-03-23T13:07:22.462Z,100
2023-03-23T13:08:24.182Z,100
2023-03-23T13:09:26.137Z,100
2023-03-23T13:10:27.613Z,100
2023-03-23T13:11:29.334Z,100
2023-03-23T13:12:31.107Z,100
2023-03-23T13:13:37.878Z,100
2023-03-23T13:14:34.552Z,100
2023-03-23T13:15:36.255Z,100
2023-03-23T13:16:38.014Z,100
2023-03-23T13:17:39.731Z,100
2023-03-23T13:18:41.461Z,100
2023-03-23T13:19:43.217Z,100
2023-03-23T13:20:44.965Z,100
2023-03-23T13:21:51.226Z,100
2023-03-23T13:22:50.041Z,100
2023-03-23T13:23:50.160Z,100
2023-03-23T13:24:51.880Z,100
2023-03-23T13:25:53.600Z,100
2023-03-23T13:26:55.342Z,100
2023-03-23T13:27:57.084Z,100
2023-03-23T13:28:58.823Z,100
2023-03-23T13:30:00.569Z,100
2023-03-23T13:31:02.352Z,100
2023-03-23T13:32:04.014Z,100
2023-03-23T13:33:05.773Z,100
2023-03-23T13:34:07.486Z,100
2023-03-23T13:35:09.230Z,100
2023-03-23T13:36:16.826Z,100
2023-03-23T13:37:12.672Z,100
2023-03-23T13:38:14.423Z,100
2023-03-23T13:39:16.153Z,100
2023-03-23T13:40:17.893Z,100
2023-03-23T13:41:19.614Z,100
2023-03-23T13:42:21.344Z,100
2023-03-23T13:43:23.093Z,100
2023-03-23T13:44:24.822Z,100
2023-03-23T13:45:26.617Z,100
2023-03-23T13:46:28.302Z,100
2023-03-23T13:47:30.043Z,100
2023-03-23T13:48:31.772Z,100
2023-03-23T13:49:33.520Z,100
2023-03-23T13:50:35.259Z,100
2023-03-23T13:51:36.960Z,100
2023-03-23T13:52:38.828Z,100
2023-03-23T13:53:40.463Z,100
2023-03-23T13:54:42.176Z,100
2023-03-23T13:55:44.151Z,100
2023-03-23T13:56:45.636Z,100
2023-03-23T13:57:47.378Z,100
2023-03-23T13:58:49.814Z,100
2023-03-23T13:59:50.853Z,100
2023-03-23T14:00:52.651Z,100
2023-03-23T14:01:54.335Z,100
2023-03-23T14:02:56.092Z,100
2023-03-23T14:03:57.797Z,100
2023-03-23T14:04:59.535Z,100
2023-03-23T14:06:01.295Z,100
2023-03-23T14:07:02.996Z,100